Time;durP1;ratioP1;P1;durP2;ratioP2;P2;SDS_P1;SDS_P2;PMS_P1;PMS_P2;Temp;Humidity;BMP_temperature;BMP_pressure;BME280_temperature;BME280_humidity;BME280_pressure;Samples;Min_cycle;Max_cycle;Signal;HPM_P1;HPM_P2
2022/04/16 00:00:00;;;;;;;1.95;0.80;;;;;;;;;;5114337;28;20024;-48
2022/04/16 00:02:29;;;;;;;1.02;0.82;;;;;;;;;;5113453;28;20030;-51
2022/04/16 00:04:55;;;;;;;0.60;0.50;;;;;;;;;;5114588;28;20023;-49
2022/04/16 00:07:21;;;;;;;1.23;0.88;;;;;;;;;;5113676;28;20406;-48
2022/04/16 00:09:47;;;;;;;0.80;0.70;;;;;;;;;;5096100;28;20028;-48
2022/04/16 00:12:13;;;;;;;0.80;0.60;;;;;;;;;;5113552;28;20032;-52
2022/04/16 00:14:39;;;;;;;1.05;0.70;;;;;;;;;;5114310;28;20055;-50
2022/04/16 00:17:05;;;;;;;1.50;1.00;;;;;;;;;;5113971;28;20380;-51
2022/04/16 00:19:32;;;;;;;1.98;0.98;;;;;;;;;;5113627;28;20051;-53
2022/04/16 00:22:00;;;;;;;0.93;0.80;;;;;;;;;;5114161;28;20019;-49
2022/04/16 00:24:26;;;;;;;1.65;0.80;;;;;;;;;;5113218;28;20457;-51
2022/04/16 00:26:52;;;;;;;1.23;0.80;;;;;;;;;;5113881;28;20036;-52
2022/04/16 00:29:18;;;;;;;1.30;0.85;;;;;;;;;;5112956;28;20027;-50
2022/04/16 00:31:45;;;;;;;1.20;0.90;;;;;;;;;;5113934;28;20035;-52
2022/04/16 00:34:14;;;;;;;1.00;0.80;;;;;;;;;;5113168;28;20026;-55
2022/04/16 00:36:40;;;;;;;1.30;0.80;;;;;;;;;;5112826;28;20016;-53
2022/04/16 00:39:06;;;;;;;1.23;0.80;;;;;;;;;;5113613;28;20020;-50
2022/04/16 00:41:32;;;;;;;1.02;0.63;;;;;;;;;;5113028;28;20512;-48
2022/04/16 00:43:58;;;;;;;0.85;0.60;;;;;;;;;;5113780;28;20040;-52
2022/04/16 00:46:24;;;;;;;1.00;0.85;;;;;;;;;;5113226;28;20022;-52
2022/04/16 00:48:50;;;;;;;0.77;0.65;;;;;;;;;;5113881;28;20038;-51
2022/04/16 00:51:16;;;;;;;0.80;0.60;;;;;;;;;;5112822;28;20522;-48
2022/04/16 00:53:42;;;;;;;0.80;0.60;;;;;;;;;;5113234;28;20127;-50
2022/04/16 00:56:10;;;;;;;1.83;0.75;;;;;;;;;;5113107;28;20055;-54
2022/04/16 00:58:37;;;;;;;0.98;0.82;;;;;;;;;;5094958;28;20031;-50
2022/04/16 01:01:03;;;;;;;1.27;0.80;;;;;;;;;;5113176;28;20028;-51
2022/04/16 01:03:29;;;;;;;1.75;1.05;;;;;;;;;;5112553;28;20878;-51
2022/04/16 01:05:55;;;;;;;2.22;0.80;;;;;;;;;;5113210;28;20020;-47
2022/04/16 01:08:22;;;;;;;0.95;0.70;;;;;;;;;;5112495;28;20024;-48
2022/04/16 01:10:48;;;;;;;1.00;0.88;;;;;;;;;;5094984;28;20023;-51
2022/04/16 01:13:15;;;;;;;1.05;0.60;;;;;;;;;;5112441;28;20122;-51
2022/04/16 01:15:41;;;;;;;1.58;1.05;;;;;;;;;;5113323;28;20042;-49
2022/04/16 01:18:08;;;;;;;0.77;0.70;;;;;;;;;;5113124;28;20131;-49
2022/04/16 01:20:36;;;;;;;1.30;0.90;;;;;;;;;;5112341;28;20040;-48
2022/04/16 01:23:03;;;;;;;1.00;0.75;;;;;;;;;;5112938;28;20031;-49
2022/04/16 01:25:32;;;;;;;0.75;0.68;;;;;;;;;;5112191;28;20077;-48
2022/04/16 01:27:58;;;;;;;0.95;0.70;;;;;;;;;;5112722;28;20027;-48
2022/04/16 01:30:24;;;;;;;1.40;1.00;;;;;;;;;;5112158;28;20449;-50
2022/04/16 01:32:50;;;;;;;0.98;0.75;;;;;;;;;;5113262;28;20035;-48
2022/04/16 01:35:17;;;;;;;1.27;0.80;;;;;;;;;;5112181;28;20051;-53
2022/04/16 01:37:43;;;;;;;0.75;0.57;;;;;;;;;;5112867;28;20077;-49
2022/04/16 01:40:10;;;;;;;0.90;0.70;;;;;;;;;;5112525;28;20588;-49
2022/04/16 01:42:37;;;;;;;3.15;0.80;;;;;;;;;;5093817;28;20035;-48
2022/04/16 01:45:08;;;;;;;1.20;0.70;;;;;;;;;;5112296;28;20044;-47
2022/04/16 01:47:36;;;;;;;;;;;;;;;;;;5112052;28;20670;-48
2022/04/16 01:50:03;;;;;;;1.00;0.90;;;;;;;;;;5112348;28;20413;-48
2022/04/16 01:52:29;;;;;;;1.90;0.80;;;;;;;;;;5111829;28;20023;-51
2022/04/16 01:54:55;;;;;;;0.77;0.77;;;;;;;;;;5112633;28;20068;-50
2022/04/16 01:57:22;;;;;;;1.92;0.88;;;;;;;;;;5111842;28;20051;-48
2022/04/16 01:59:48;;;;;;;0.70;0.60;;;;;;;;;;5112609;28;20020;-52
2022/04/16 02:02:15;;;;;;;1.25;0.90;;;;;;;;;;5112497;28;20092;-57
2022/04/16 02:04:41;;;;;;;0.70;0.60;;;;;;;;;;5112382;28;20069;-52
2022/04/16 02:07:08;;;;;;;1.20;0.80;;;;;;;;;;5112247;28;20073;-52
2022/04/16 02:09:34;;;;;;;1.13;0.60;;;;;;;;;;5111680;28;20640;-50
2022/04/16 02:12:00;;;;;;;1.27;0.80;;;;;;;;;;5112526;28;20100;-49
2022/04/16 02:14:26;;;;;;;1.25;0.70;;;;;;;;;;5111684;28;20149;-49
2022/04/16 02:16:53;;;;;;;1.02;0.70;;;;;;;;;;5112616;28;20114;-52
2022/04/16 02:19:19;;;;;;;0.93;0.70;;;;;;;;;;5093257;28;20020;-52
2022/04/16 02:21:46;;;;;;;1.42;0.77;;;;;;;;;;5112246;28;20024;-49
2022/04/16 02:24:13;;;;;;;1.08;0.77;;;;;;;;;;5111989;28;20016;-47
2022/04/16 02:26:40;;;;;;;0.70;0.70;;;;;;;;;;5112001;28;20050;-47
2022/04/16 02:29:08;;;;;;;0.68;0.50;;;;;;;;;;5112345;28;20130;-47
2022/04/16 02:31:34;;;;;;;1.27;0.73;;;;;;;;;;5111466;28;20050;-47
2022/04/16 02:34:00;;;;;;;0.70;0.65;;;;;;;;;;5112187;28;20023;-48
2022/04/16 02:36:26;;;;;;;0.80;0.60;;;;;;;;;;5111712;28;20073;-48
2022/04/16 02:38:54;;;;;;;0.70;0.70;;;;;;;;;;5111967;28;20020;-49
2022/04/16 02:41:20;;;;;;;1.33;0.70;;;;;;;;;;5111425;28;20028;-47
2022/04/16 02:43:46;;;;;;;1.02;0.77;;;;;;;;;;5093645;28;20103;-48
2022/04/16 02:48:56;;;;;;;1.35;0.57;;;;;;;;;;5112047;28;20072;-47
2022/04/16 02:51:24;;;;;;;1.30;0.60;;;;;;;;;;5111271;28;20032;-48
2022/04/16 02:53:50;;;;;;;0.73;0.65;;;;;;;;;;5112089;28;20024;-48
2022/04/16 02:56:16;;;;;;;0.80;0.70;;;;;;;;;;5093695;28;20061;-55
2022/04/16 02:58:42;;;;;;;0.63;0.60;;;;;;;;;;5111545;28;20097;-49
2022/04/16 03:01:08;;;;;;;1.08;0.77;;;;;;;;;;5115589;28;20464;-48
2022/04/16 03:03:34;;;;;;;0.50;0.50;;;;;;;;;;5114680;28;20024;-51
2022/04/16 03:06:00;;;;;;;0.98;0.70;;;;;;;;;;5115409;28;20019;-51
2022/04/16 03:08:26;;;;;;;1.08;0.90;;;;;;;;;;5114534;28;20106;-49
2022/04/16 03:10:52;;;;;;;0.63;0.60;;;;;;;;;;5115527;28;20080;-50
2022/04/16 03:13:19;;;;;;;1.50;0.80;;;;;;;;;;5114961;28;20491;-56
2022/04/16 03:18:30;;;;;;;0.98;0.70;;;;;;;;;;5114726;28;20027;-49
2022/04/16 03:20:57;;;;;;;1.10;0.88;;;;;;;;;;5115408;28;20031;-49
2022/04/16 03:23:24;;;;;;;0.52;0.52;;;;;;;;;;5114319;28;20108;-50
2022/04/16 03:25:50;;;;;;;1.30;0.73;;;;;;;;;;5114931;28;20509;-49
2022/04/16 03:28:16;;;;;;;0.90;0.60;;;;;;;;;;5114916;28;20522;-49
2022/04/16 03:30:43;;;;;;;0.52;0.50;;;;;;;;;;5114520;28;20043;-48
2022/04/16 03:33:09;;;;;;;1.02;0.90;;;;;;;;;;5115184;28;20030;-49
2022/04/16 03:35:35;;;;;;;0.63;0.63;;;;;;;;;;5114071;28;20030;-50
2022/04/16 03:38:01;;;;;;;0.68;0.60;;;;;;;;;;5115046;28;20016;-47
2022/04/16 03:40:28;;;;;;;0.82;0.70;;;;;;;;;;5114563;28;20104;-48
2022/04/16 03:42:58;;;;;;;1.40;0.70;;;;;;;;;;5115058;28;20408;-48
2022/04/16 03:45:28;;;;;;;0.73;0.70;;;;;;;;;;5113936;28;20055;-47
2022/04/16 03:47:55;;;;;;;0.90;0.70;;;;;;;;;;5114941;28;20077;-47
2022/04/16 03:50:21;;;;;;;0.70;0.60;;;;;;;;;;5096206;28;20110;-55
2022/04/16 03:52:48;;;;;;;0.90;0.70;;;;;;;;;;5114340;28;20024;-48
2022/04/16 04:00:45;;;;;;;0.68;0.50;;;;;;;;;;5114031;28;20062;-49
2022/04/16 04:03:12;;;;;;;1.05;0.63;;;;;;;;;;5114619;28;20041;-50
2022/04/16 04:05:38;;;;;;;1.00;0.75;;;;;;;;;;5113517;28;20456;-48
2022/04/16 04:08:05;;;;;;;0.80;0.75;;;;;;;;;;5114219;28;20024;-50
2022/04/16 04:10:31;;;;;;;1.15;0.73;;;;;;;;;;5113425;28;20028;-50
2022/04/16 04:12:57;;;;;;;4.78;0.70;;;;;;;;;;5114703;28;20035;-48
2022/04/16 04:15:23;;;;;;;0.80;0.70;;;;;;;;;;5095638;28;20072;-56
2022/04/16 04:17:50;;;;;;;0.93;0.52;;;;;;;;;;5114215;28;20094;-47
2022/04/16 04:20:16;;;;;;;1.10;0.80;;;;;;;;;;5114214;28;20035;-51
2022/04/16 04:22:42;;;;;;;0.88;0.75;;;;;;;;;;5113389;28;20126;-48
2022/04/16 04:25:08;;;;;;;2.60;0.77;;;;;;;;;;5114467;28;20030;-49
2022/04/16 04:27:34;;;;;;;0.82;0.63;;;;;;;;;;5095089;28;20026;-49
2022/04/16 04:30:03;;;;;;;0.93;0.63;;;;;;;;;;5114199;28;20034;-49
2022/04/16 04:32:29;;;;;;;0.60;0.60;;;;;;;;;;5112944;28;20084;-47
2022/04/16 04:34:55;;;;;;;0.90;0.80;;;;;;;;;;5113784;28;20031;-46
2022/04/16 04:37:22;;;;;;;0.70;0.70;;;;;;;;;;5113976;28;20059;-46
2022/04/16 04:39:48;;;;;;;1.02;0.93;;;;;;;;;;5113630;28;20049;-47
2022/04/16 04:42:22;;;;;;;0.90;0.70;;;;;;;;;;5113587;28;20026;-48
2022/04/16 04:44:48;;;;;;;1.10;0.50;;;;;;;;;;5113113;28;20058;-50
2022/04/16 04:47:14;;;;;;;1.10;0.50;;;;;;;;;;5113418;28;20027;-48
2022/04/16 04:49:40;;;;;;;0.77;0.63;;;;;;;;;;5112509;28;20098;-50
2022/04/16 04:52:06;;;;;;;1.05;0.80;;;;;;;;;;5113721;28;20024;-46
2022/04/16 04:54:32;;;;;;;0.93;0.60;;;;;;;;;;5112904;28;20030;-47
2022/04/16 04:56:58;;;;;;;1.80;0.60;;;;;;;;;;5113541;28;20036;-51
2022/04/16 04:59:25;;;;;;;0.95;0.70;;;;;;;;;;5112902;28;20115;-56
2022/04/16 05:01:51;;;;;;;1.30;0.75;;;;;;;;;;5112993;28;20059;-47
2022/04/16 05:04:17;;;;;;;1.85;0.60;;;;;;;;;;5095099;28;20023;-50
2022/04/16 05:06:43;;;;;;;0.73;0.73;;;;;;;;;;5112324;28;20030;-50
2022/04/16 05:09:10;;;;;;;0.65;0.63;;;;;;;;;;5113424;28;20020;-46
2022/04/16 05:11:36;;;;;;;0.90;0.90;;;;;;;;;;5094392;28;20031;-49
2022/04/16 05:14:02;;;;;;;1.05;0.63;;;;;;;;;;5113202;28;20046;-47
2022/04/16 05:16:28;;;;;;;2.30;0.75;;;;;;;;;;5112460;28;20028;-56
2022/04/16 05:18:54;;;;;;;1.42;0.90;;;;;;;;;;5113171;28;20529;-52
2022/04/16 05:21:20;;;;;;;1.08;0.85;;;;;;;;;;5113104;28;20077;-52
2022/04/16 05:23:46;;;;;;;0.70;0.60;;;;;;;;;;5111740;28;20019;-49
2022/04/16 05:26:12;;;;;;;1.55;0.90;;;;;;;;;;5113579;28;20337;-53
2022/04/16 05:28:39;;;;;;;1.00;0.90;;;;;;;;;;5112150;28;20134;-48
2022/04/16 05:31:06;;;;;;;0.82;0.70;;;;;;;;;;5112928;28;20055;-49
2022/04/16 05:36:17;;;;;;;0.70;0.60;;;;;;;;;;5112959;28;20042;-46
2022/04/16 05:38:44;;;;;;;2.22;0.70;;;;;;;;;;5111767;28;20091;-47
2022/04/16 05:41:10;;;;;;;1.98;1.38;;;;;;;;;;5112746;28;20104;-47
2022/04/16 05:43:36;;;;;;;0.77;0.60;;;;;;;;;;5111766;28;20051;-48
2022/04/16 05:46:02;;;;;;;0.85;0.80;;;;;;;;;;5112864;28;20443;-47
2022/04/16 05:48:28;;;;;;;1.45;0.75;;;;;;;;;;5112409;28;20048;-55
2022/04/16 05:50:56;;;;;;;1.17;0.77;;;;;;;;;;5093902;28;20024;-49
2022/04/16 05:53:22;;;;;;;1.63;0.90;;;;;;;;;;5112661;28;20118;-50
2022/04/16 05:55:50;;;;;;;1.25;0.80;;;;;;;;;;5111574;28;20077;-49
2022/04/16 05:58:16;;;;;;;1.50;0.90;;;;;;;;;;5094447;28;20468;-49
2022/04/16 06:00:43;;;;;;;1.75;0.70;;;;;;;;;;5111833;28;20059;-50
2022/04/16 06:03:09;;;;;;;1.77;0.85;;;;;;;;;;5112546;28;20020;-50
2022/04/16 06:05:36;;;;;;;0.77;0.60;;;;;;;;;;5093542;28;20372;-51
2022/04/16 06:08:02;;;;;;;0.70;0.70;;;;;;;;;;5112663;28;20020;-51
2022/04/16 06:10:28;;;;;;;1.42;1.00;;;;;;;;;;5112053;28;20361;-54
2022/04/16 06:12:54;;;;;;;1.42;0.60;;;;;;;;;;5112063;28;20034;-47
2022/04/16 06:15:22;;;;;;;1.38;1.10;;;;;;;;;;5112168;28;20028;-46
2022/04/16 06:17:47;;;;;;;0.98;0.77;;;;;;;;;;5112013;28;20153;-48
2022/04/16 06:20:14;;;;;;;0.90;0.70;;;;;;;;;;5112674;28;20457;-50
2022/04/16 06:22:40;;;;;;;0.73;0.63;;;;;;;;;;5111634;28;20177;-49
2022/04/16 06:25:08;;;;;;;0.80;0.80;;;;;;;;;;5112552;28;20098;-47
2022/04/16 06:27:35;;;;;;;1.05;0.93;;;;;;;;;;5111577;28;20024;-46
2022/04/16 06:30:01;;;;;;;1.48;0.77;;;;;;;;;;5094044;28;20110;-50
2022/04/16 06:32:27;;;;;;;1.25;0.70;;;;;;;;;;5112296;28;20100;-46
2022/04/16 06:34:53;;;;;;;1.33;0.85;;;;;;;;;;5112958;28;20028;-48
2022/04/16 06:37:19;;;;;;;1.10;0.70;;;;;;;;;;5116241;28;20357;-46
2022/04/16 06:39:45;;;;;;;0.70;0.70;;;;;;;;;;5115419;28;20115;-46
2022/04/16 06:42:11;;;;;;;1.30;0.73;;;;;;;;;;5116178;28;20032;-46
2022/04/16 06:44:37;;;;;;;0.93;0.80;;;;;;;;;;5115096;28;20046;-47
2022/04/16 06:47:03;;;;;;;0.85;0.68;;;;;;;;;;5116046;28;20020;-49
2022/04/16 06:49:29;;;;;;;0.80;0.70;;;;;;;;;;5116107;28;20024;-53
2022/04/16 06:51:55;;;;;;;1.05;0.90;;;;;;;;;;5115158;28;20126;-52
2022/04/16 06:54:21;;;;;;;0.90;0.73;;;;;;;;;;5115898;28;21462;-48
2022/04/16 06:56:46;;;;;;;1.50;0.93;;;;;;;;;;5114865;28;20027;-53
2022/04/16 06:59:12;;;;;;;1.20;0.80;;;;;;;;;;5115596;28;20023;-49
2022/04/16 07:01:38;;;;;;;0.90;0.70;;;;;;;;;;5114767;28;20027;-46
2022/04/16 07:04:05;;;;;;;1.00;0.85;;;;;;;;;;5115989;28;20020;-48
2022/04/16 07:06:31;;;;;;;0.70;0.60;;;;;;;;;;5115765;28;20201;-48
2022/04/16 07:08:57;;;;;;;1.00;0.70;;;;;;;;;;5114845;28;20107;-47
2022/04/16 07:11:22;;;;;;;1.10;0.82;;;;;;;;;;5115675;28;20034;-46
2022/04/16 07:13:48;;;;;;;0.90;0.80;;;;;;;;;;5114506;28;20039;-49
2022/04/16 07:16:14;;;;;;;0.70;0.70;;;;;;;;;;5115496;28;20049;-51
2022/04/16 07:18:40;;;;;;;0.90;0.70;;;;;;;;;;5114673;28;20051;-46
2022/04/16 07:21:06;;;;;;;1.00;0.73;;;;;;;;;;5115393;28;20103;-50
2022/04/16 07:23:32;;;;;;;0.90;0.70;;;;;;;;;;5114923;28;20027;-55
2022/04/16 07:25:58;;;;;;;1.15;0.90;;;;;;;;;;5114612;28;20084;-53
2022/04/16 07:28:24;;;;;;;1.08;0.98;;;;;;;;;;5114976;28;20020;-50
2022/04/16 07:30:51;;;;;;;1.40;1.10;;;;;;;;;;5114361;28;20114;-53
2022/04/16 07:33:17;;;;;;;1.02;0.80;;;;;;;;;;5096904;28;20522;-50
2022/04/16 07:35:43;;;;;;;1.38;0.80;;;;;;;;;;5114114;28;20430;-51
2022/04/16 07:38:09;;;;;;;1.67;1.00;;;;;;;;;;5096883;28;20313;-50
2022/04/16 07:40:36;;;;;;;1.20;1.10;;;;;;;;;;5114586;28;20023;-54
2022/04/16 07:43:02;;;;;;;1.08;0.90;;;;;;;;;;5114815;28;20045;-47
2022/04/16 07:45:28;;;;;;;1.38;1.10;;;;;;;;;;5114448;28;20047;-47
2022/04/16 07:47:54;;;;;;;1.17;0.80;;;;;;;;;;5114141;28;20034;-49
2022/04/16 07:50:20;;;;;;;1.02;0.82;;;;;;;;;;5114953;28;20028;-49
2022/04/16 07:52:47;;;;;;;2.00;1.08;;;;;;;;;;5095758;28;20148;-47
2022/04/16 07:55:13;;;;;;;1.08;0.77;;;;;;;;;;5114834;28;20031;-47
2022/04/16 07:57:39;;;;;;;1.33;1.00;;;;;;;;;;5113725;28;20051;-48
2022/04/16 08:00:06;;;;;;;1.08;0.90;;;;;;;;;;5114421;28;20167;-47
2022/04/16 08:02:32;;;;;;;2.08;1.10;;;;;;;;;;5114902;28;20023;-51
2022/04/16 08:04:58;;;;;;;1.25;1.00;;;;;;;;;;5114100;28;20038;-47
2022/04/16 08:07:24;;;;;;;1.27;1.10;;;;;;;;;;5096286;28;20097;-46
2022/04/16 08:09:51;;;;;;;1.50;1.23;;;;;;;;;;5113593;28;20024;-46
2022/04/16 08:12:17;;;;;;;1.65;1.08;;;;;;;;;;5114455;28;20062;-51
2022/04/16 08:14:43;;;;;;;0.98;0.80;;;;;;;;;;5113628;28;20039;-49
2022/04/16 08:17:09;;;;;;;1.25;1.00;;;;;;;;;;5096310;28;20077;-46
2022/04/16 08:19:35;;;;;;;1.77;1.30;;;;;;;;;;5114311;28;20410;-49
2022/04/16 08:22:06;;;;;;;1.27;1.15;;;;;;;;;;5113420;28;20019;-47
2022/04/16 08:24:38;;;;;;;1.50;0.95;;;;;;;;;;5114094;28;20088;-46
2022/04/16 08:27:05;;;;;;;1.92;1.23;;;;;;;;;;5114111;28;20032;-46
2022/04/16 08:29:32;;;;;;;2.03;1.48;;;;;;;;;;5113818;28;20028;-46
2022/04/16 08:31:58;;;;;;;1.63;1.20;;;;;;;;;;5113177;28;20019;-49
2022/04/16 08:34:24;;;;;;;1.35;0.90;;;;;;;;;;5114042;28;20023;-52
2022/04/16 08:36:50;;;;;;;1.27;1.00;;;;;;;;;;5113160;28;20020;-49
2022/04/16 08:39:16;;;;;;;1.33;0.90;;;;;;;;;;5113966;28;20062;-50
2022/04/16 08:41:42;;;;;;;1.30;1.10;;;;;;;;;;5113207;28;20055;-51
2022/04/16 08:44:09;;;;;;;1.90;1.20;;;;;;;;;;5113644;28;20516;-48
2022/04/16 08:46:35;;;;;;;1.73;1.08;;;;;;;;;;5113804;28;20102;-52
2022/04/16 08:49:02;;;;;;;1.95;1.23;;;;;;;;;;5112955;28;20461;-51
2022/04/16 08:51:28;;;;;;;1.08;0.85;;;;;;;;;;5113737;28;20065;-50
2022/04/16 08:53:55;;;;;;;1.90;1.55;;;;;;;;;;5112504;28;20048;-53
2022/04/16 08:56:22;;;;;;;1.33;1.00;;;;;;;;;;5113941;28;20031;-49
2022/04/16 08:58:47;;;;;;;1.80;1.20;;;;;;;;;;5112067;28;20036;-49
2022/04/16 09:01:14;;;;;;;1.77;1.00;;;;;;;;;;5113501;28;20517;-53
2022/04/16 09:03:40;;;;;;;1.10;0.93;;;;;;;;;;5113110;28;20015;-57
2022/04/16 09:06:07;;;;;;;1.50;1.20;;;;;;;;;;5113165;28;20024;-50
2022/04/16 09:08:35;;;;;;;1.27;0.90;;;;;;;;;;5095042;28;20349;-52
2022/04/16 09:11:13;;;;;;;1.75;1.60;;;;;;;;;;5112262;28;20648;-51
2022/04/16 09:13:52;;;;;;;1.35;1.05;;;;;;;;;;5113044;28;20472;-57
2022/04/16 09:16:19;;;;;;;1.17;1.08;;;;;;;;;;5113072;28;20024;-51
2022/04/16 09:18:52;;;;;;;2.22;1.45;;;;;;;;;;5112381;28;20095;-49
2022/04/16 09:21:19;;;;;;;1.67;1.20;;;;;;;;;;5113131;28;20020;-51
2022/04/16 09:23:47;;;;;;;1.30;1.00;;;;;;;;;;5112361;28;20027;-50
2022/04/16 09:26:13;;;;;;;1.52;1.05;;;;;;;;;;5113254;28;20055;-53
2022/04/16 09:28:46;;;;;;;1.80;1.15;;;;;;;;;;5112885;28;20081;-56
2022/04/16 09:31:12;;;;;;;1.65;1.20;;;;;;;;;;5094632;28;20031;-50
2022/04/16 09:33:40;;;;;;;1.50;1.20;;;;;;;;;;5112961;28;20030;-48
2022/04/16 09:36:06;;;;;;;1.33;1.08;;;;;;;;;;5112427;28;20019;-51
2022/04/16 09:38:36;;;;;;;1.50;1.40;;;;;;;;;;5113156;28;20034;-49
2022/04/16 09:41:07;;;;;;;3.15;1.50;;;;;;;;;;5112005;28;20095;-53
2022/04/16 09:43:36;;;;;;;3.30;1.48;;;;;;;;;;5112345;28;20027;-52
2022/04/16 09:46:11;;;;;;;1.98;1.70;;;;;;;;;;5111821;28;20585;-54
2022/04/16 09:48:38;;;;;;;1.85;1.30;;;;;;;;;;5112477;28;20485;-51
2022/04/16 09:51:06;;;;;;;1.52;1.17;;;;;;;;;;5111938;28;20034;-49
2022/04/16 09:53:36;;;;;;;1.50;1.30;;;;;;;;;;5112587;28;20040;-52
2022/04/16 09:56:02;;;;;;;1.52;1.23;;;;;;;;;;5111418;28;20038;-52
2022/04/16 09:58:36;;;;;;;1.60;1.13;;;;;;;;;;5112661;28;20027;-52
2022/04/16 10:01:02;;;;;;;2.17;1.30;;;;;;;;;;5111869;28;20027;-50
2022/04/16 10:03:29;;;;;;;1.95;1.75;;;;;;;;;;5112612;28;20023;-50
2022/04/16 10:05:58;;;;;;;2.05;1.55;;;;;;;;;;5111411;28;20345;-48
2022/04/16 10:08:25;;;;;;;2.42;1.58;;;;;;;;;;5113239;28;20071;-52
2022/04/16 10:10:54;;;;;;;1.40;1.30;;;;;;;;;;5116013;28;20028;-50
2022/04/16 10:13:22;;;;;;;2.35;1.85;;;;;;;;;;5116620;28;20469;-51
2022/04/16 10:16:00;;;;;;;1.50;1.20;;;;;;;;;;5115894;28;20034;-51
2022/04/16 10:18:26;;;;;;;1.85;1.65;;;;;;;;;;5116657;28;20419;-49
2022/04/16 10:20:54;;;;;;;2.70;1.40;;;;;;;;;;5115535;28;20056;-51
2022/04/16 10:23:39;;;;;;;1.50;1.40;;;;;;;;;;5116596;28;20023;-48
2022/04/16 10:26:06;;;;;;;1.77;1.27;;;;;;;;;;5115997;28;20083;-51
2022/04/16 10:28:37;;;;;;;1.60;1.40;;;;;;;;;;5116422;28;20036;-48
2022/04/16 10:31:03;;;;;;;2.00;1.45;;;;;;;;;;5115515;28;20084;-51
2022/04/16 10:33:29;;;;;;;1.58;1.30;;;;;;;;;;5098199;28;20031;-49
2022/04/16 10:35:57;;;;;;;3.22;1.88;;;;;;;;;;5115459;28;20072;-48
2022/04/16 10:38:31;;;;;;;3.58;1.92;;;;;;;;;;5116217;28;20023;-50
2022/04/16 10:40:58;;;;;;;2.47;1.80;;;;;;;;;;5115477;28;20027;-50
2022/04/16 10:43:32;;;;;;;2.10;1.65;;;;;;;;;;5116281;28;20016;-48
2022/04/16 10:46:08;;;;;;;1.80;1.50;;;;;;;;;;5115488;28;20043;-49
2022/04/16 10:48:38;;;;;;;1.85;1.63;;;;;;;;;;5116259;28;20049;-48
2022/04/16 10:51:05;;;;;;;1.52;1.42;;;;;;;;;;5115168;28;20035;-49
2022/04/16 10:53:35;;;;;;;2.42;1.73;;;;;;;;;;5115933;28;20032;-51
2022/04/16 10:56:07;;;;;;;2.17;1.60;;;;;;;;;;5114709;28;20099;-48
2022/04/16 10:58:33;;;;;;;2.25;1.80;;;;;;;;;;5115424;28;20118;-50
2022/04/16 11:01:26;;;;;;;2.88;2.17;;;;;;;;;;5114842;28;20035;-49
2022/04/16 11:03:53;;;;;;;2.30;1.60;;;;;;;;;;5111108;28;20081;-50
2022/04/16 11:06:20;;;;;;;2.70;1.60;;;;;;;;;;5115863;28;20030;-47
2022/04/16 11:08:46;;;;;;;2.13;1.40;;;;;;;;;;5115587;28;20030;-56
2022/04/16 11:11:13;;;;;;;2.00;1.48;;;;;;;;;;5115098;28;20024;-51
2022/04/16 11:13:40;;;;;;;2.08;1.67;;;;;;;;;;5115634;28;20019;-48
2022/04/16 11:16:07;;;;;;;2.95;1.70;;;;;;;;;;5114709;28;20105;-49
2022/04/16 11:18:41;;;;;;;2.38;1.83;;;;;;;;;;5115817;28;20027;-49
2022/04/16 11:21:09;;;;;;;1.63;1.27;;;;;;;;;;5113433;28;20016;-53
2022/04/16 11:23:42;;;;;;;2.47;1.35;;;;;;;;;;5115439;28;20028;-52
2022/04/16 11:34:27;;;;;;;2.50;1.90;;;;;;;;;;5115114;28;20030;-49
2022/04/16 11:36:53;;;;;;;2.05;1.60;;;;;;;;;;5114366;28;20023;-50
2022/04/16 11:39:19;;;;;;;3.13;1.73;;;;;;;;;;5115051;28;20020;-49
2022/04/16 11:41:49;;;;;;;2.50;1.67;;;;;;;;;;5114857;28;20419;-50
2022/04/16 11:44:15;;;;;;;1.67;1.58;;;;;;;;;;5114323;28;20059;-49
2022/04/16 11:46:41;;;;;;;3.13;1.35;;;;;;;;;;5114779;28;20103;-54
2022/04/16 11:49:08;;;;;;;3.75;1.45;;;;;;;;;;5114079;28;20041;-53
2022/04/16 11:51:37;;;;;;;2.28;1.60;;;;;;;;;;5114559;28;20027;-52
2022/04/16 11:54:03;;;;;;;1.58;1.38;;;;;;;;;;5113880;28;20032;-48
2022/04/16 11:56:30;;;;;;;1.83;1.52;;;;;;;;;;5114533;28;20111;-49
2022/04/16 11:58:56;;;;;;;2.22;1.73;;;;;;;;;;5113959;28;20016;-49
2022/04/16 12:01:23;;;;;;;1.95;1.55;;;;;;;;;;5114964;28;20077;-49
2022/04/16 12:03:49;;;;;;;2.22;1.67;;;;;;;;;;5114314;28;20023;-52
2022/04/16 12:06:16;;;;;;;2.30;1.50;;;;;;;;;;5114138;28;20020;-51
2022/04/16 12:08:42;;;;;;;2.70;1.60;;;;;;;;;;5114846;28;20038;-51
2022/04/16 12:11:09;;;;;;;1.85;1.60;;;;;;;;;;5113782;28;20032;-49
2022/04/16 12:13:36;;;;;;;2.40;1.65;;;;;;;;;;5114485;28;20055;-48
2022/04/16 12:16:06;;;;;;;1.85;1.58;;;;;;;;;;5113599;28;20102;-49
2022/04/16 12:18:38;;;;;;;2.88;1.55;;;;;;;;;;5114181;28;20023;-49
2022/04/16 12:21:07;;;;;;;2.47;1.70;;;;;;;;;;5113488;28;20027;-49
2022/04/16 12:23:33;;;;;;;2.47;1.70;;;;;;;;;;5114149;28;20028;-50
2022/04/16 12:26:06;;;;;;;1.90;1.70;;;;;;;;;;5113645;28;20027;-50
2022/04/16 12:28:33;;;;;;;1.67;1.50;;;;;;;;;;5114266;28;20042;-49
2022/04/16 12:30:59;;;;;;;2.13;1.35;;;;;;;;;;5113056;28;20019;-48
2022/04/16 12:33:26;;;;;;;3.47;1.63;;;;;;;;;;5113784;28;20062;-48
2022/04/16 12:35:55;;;;;;;1.77;1.35;;;;;;;;;;5113483;28;20031;-55
2022/04/16 12:38:23;;;;;;;1.83;1.58;;;;;;;;;;5114252;28;20073;-48
2022/04/16 12:40:50;;;;;;;2.22;1.52;;;;;;;;;;5095703;28;20422;-48
2022/04/16 12:43:16;;;;;;;1.77;1.23;;;;;;;;;;5113109;28;20073;-48
2022/04/16 12:45:42;;;;;;;2.00;1.60;;;;;;;;;;5113864;28;20055;-48
2022/04/16 12:48:09;;;;;;;2.00;1.67;;;;;;;;;;5112801;28;20016;-50
2022/04/16 12:50:35;;;;;;;1.48;1.30;;;;;;;;;;5113455;28;20032;-50
2022/04/16 12:53:01;;;;;;;1.60;1.50;;;;;;;;;;5112810;28;20105;-52
2022/04/16 12:55:30;;;;;;;1.85;1.55;;;;;;;;;;5113623;28;20103;-51
2022/04/16 12:57:57;;;;;;;1.65;1.23;;;;;;;;;;5112704;28;20476;-53
2022/04/16 13:00:23;;;;;;;1.67;1.40;;;;;;;;;;5113432;28;20024;-48
2022/04/16 13:02:49;;;;;;;2.40;1.65;;;;;;;;;;5095262;28;20020;-49
2022/04/16 13:05:16;;;;;;;2.25;1.70;;;;;;;;;;5112365;28;20051;-52
2022/04/16 13:07:46;;;;;;;2.00;1.70;;;;;;;;;;5113705;28;20038;-48
2022/04/16 13:10:13;;;;;;;2.60;1.80;;;;;;;;;;5112435;28;20023;-49
2022/04/16 13:12:39;;;;;;;1.70;1.27;;;;;;;;;;5113096;28;20465;-49
2022/04/16 13:15:06;;;;;;;1.75;1.40;;;;;;;;;;5112442;28;20028;-53
2022/04/16 13:17:32;;;;;;;2.17;1.42;;;;;;;;;;5113218;28;20015;-51
2022/04/16 13:20:01;;;;;;;1.63;1.33;;;;;;;;;;5112142;28;20472;-52
2022/04/16 13:22:28;;;;;;;2.03;1.27;;;;;;;;;;5113192;28;20035;-51
2022/04/16 13:24:57;;;;;;;1.70;1.30;;;;;;;;;;5113177;28;20073;-56
2022/04/16 13:27:23;;;;;;;1.65;1.40;;;;;;;;;;5112936;28;20072;-50
2022/04/16 13:29:49;;;;;;;1.90;1.30;;;;;;;;;;5113029;28;20108;-50
2022/04/16 13:32:15;;;;;;;1.90;1.70;;;;;;;;;;5111935;28;20291;-49
2022/04/16 13:34:43;;;;;;;2.38;1.70;;;;;;;;;;5094410;28;20075;-52
2022/04/16 13:37:09;;;;;;;2.13;1.50;;;;;;;;;;5112002;28;20028;-50
2022/04/16 13:42:23;;;;;;;1.60;1.30;;;;;;;;;;5111930;28;20062;-51
2022/04/16 13:44:52;;;;;;;1.42;1.13;;;;;;;;;;5112526;28;20071;-50
2022/04/16 13:47:20;;;;;;;2.28;1.45;;;;;;;;;;5111778;28;20016;-50
2022/04/16 13:49:46;;;;;;;1.45;1.10;;;;;;;;;;5112669;28;20019;-50
2022/04/16 13:52:12;;;;;;;2.13;1.23;;;;;;;;;;5111608;28;20042;-53
2022/04/16 13:54:38;;;;;;;1.88;1.40;;;;;;;;;;5112598;28;20076;-50
2022/04/16 13:57:05;;;;;;;1.60;1.33;;;;;;;;;;5111873;28;20107;-48
2022/04/16 13:59:32;;;;;;;1.40;1.27;;;;;;;;;;5112497;28;20466;-49
2022/04/16 14:01:58;;;;;;;1.73;1.40;;;;;;;;;;5112382;28;20092;-55
2022/04/16 14:04:24;;;;;;;1.90;1.40;;;;;;;;;;5094124;28;20027;-49
2022/04/16 14:06:51;;;;;;;1.73;1.50;;;;;;;;;;5112638;28;20111;-48
2022/04/16 14:09:17;;;;;;;2.05;1.65;;;;;;;;;;5111464;28;20085;-47
2022/04/16 14:11:44;;;;;;;1.63;1.52;;;;;;;;;;5112624;28;20035;-48
2022/04/16 14:14:10;;;;;;;1.98;1.40;;;;;;;;;;5093510;28;20461;-48
2022/04/16 14:16:36;;;;;;;1.60;1.05;;;;;;;;;;5112686;28;20019;-48
2022/04/16 14:19:02;;;;;;;1.40;1.20;;;;;;;;;;5111413;28;20423;-48
2022/04/16 14:21:28;;;;;;;1.75;1.45;;;;;;;;;;5112499;28;20457;-48
2022/04/16 14:23:54;;;;;;;2.03;1.35;;;;;;;;;;5112463;28;20030;-47
2022/04/16 14:26:20;;;;;;;2.33;1.38;;;;;;;;;;5111492;28;20023;-50
2022/04/16 14:28:46;;;;;;;1.58;1.40;;;;;;;;;;5112407;28;20039;-47
2022/04/16 14:31:12;;;;;;;1.92;1.73;;;;;;;;;;5111455;28;20039;-50
2022/04/16 14:33:39;;;;;;;1.30;1.20;;;;;;;;;;5094167;28;20080;-49
2022/04/16 14:36:06;;;;;;;1.88;1.50;;;;;;;;;;5111538;28;20035;-48
2022/04/16 14:38:33;;;;;;;1.83;1.50;;;;;;;;;;5112348;28;20130;-49
2022/04/16 14:41:12;;;;;;;2.10;1.48;;;;;;;;;;5112119;28;20055;-55
2022/04/16 14:43:40;;;;;;;2.25;1.50;;;;;;;;;;5112187;28;20073;-49
2022/04/16 14:46:06;;;;;;;1.77;1.48;;;;;;;;;;5111486;28;20147;-48
2022/04/16 14:48:32;;;;;;;1.20;1.05;;;;;;;;;;5111975;28;20024;-49
2022/04/16 14:51:01;;;;;;;2.10;1.45;;;;;;;;;;5112196;28;20028;-52
2022/04/16 14:53:27;;;;;;;2.25;1.77;;;;;;;;;;5111867;28;20026;-49
2022/04/16 14:55:53;;;;;;;1.80;1.20;;;;;;;;;;5113226;28;20039;-49
2022/04/16 14:58:19;;;;;;;1.58;1.35;;;;;;;;;;5114895;28;20035;-48
2022/04/16 15:00:45;;;;;;;2.10;1.50;;;;;;;;;;5116056;28;20027;-51
2022/04/16 15:03:12;;;;;;;1.95;1.42;;;;;;;;;;5114999;28;20035;-49
2022/04/16 15:05:38;;;;;;;2.10;1.48;;;;;;;;;;5115814;28;20019;-50